Impacts METAR Board
IDs:

KGEG - Spokane Intl, WA, US

Updated at: 1200 UTC 20 Oct 2021
Potential Impact None Slight Moderate High
Time 20/00Z 20/01Z 20/02Z 20/03Z 20/04Z 20/05Z 20/06Z 20/07Z 20/08Z 20/09Z 20/10Z 20/11Z 20/12Z
Temp65 61 59 55 57 54 53 50 52 49 50 52 53
Dewpt37 37 37 37 36 36 35 35 34 35 34 34 34
Altim29.86 29.86 29.85 29.85 29.84 29.84 29.83 29.83 29.82 29.81 29.81 29.80 29.80
VIS10 10 10 10 10 10 10 10 10 10 10 10 10
CIG-- -- -- -- -- -- -- -- 250 250 190 190 200
CoverFEWFEWFEWSCTFEWSCTSCTSCTBKNBKNBKNOVCOVC
FltCatVFRVFRVFRVFRVFRVFRVFRVFRVFRVFRVFRVFRVFR
WX--------------------------
WDir6000708060701401400110120140
WSpd5 0 0 5 8 7 8 3 5 0 4 3 7
WGst-- -- -- -- -- -- -- -- -- -- -- -- --
Raw hourly METARs
KGEG 192353Z 06005KT 10SM FEW200 18/03 A2986 RMK AO2 SLP110 T01830028 10183 20106 58016
KGEG 200053Z 00000KT 10SM FEW200 16/03 A2986 RMK AO2 SLP113 T01610028
KGEG 200153Z 00000KT 10SM FEW200 15/03 A2985 RMK AO2 SLP112 T01500028
KGEG 200253Z 07005KT 10SM SCT220 13/03 A2985 RMK AO2 SLP113 T01280028 58003
KGEG 200353Z 08008KT 10SM FEW008 FEW220 14/02 A2984 RMK AO2 SLP106 T01390022
KGEG 200453Z 06007KT 10SM FEW010 SCT220 12/02 A2984 RMK AO2 SLP105 T01220022
KGEG 200553Z 07008KT 10SM SCT240 12/02 A2983 RMK AO2 SLP102 T01170017 10183 20111 56006
KGEG 200653Z 14003KT 10SM SCT240 10/02 A2983 RMK AO2 SLP101 T01000017
KGEG 200753Z 14005KT 10SM BKN250 11/01 A2982 RMK AO2 SLP095 T01110011 401830039
KGEG 200853Z 00000KT 10SM BKN250 09/02 A2981 RMK AO2 SLP093 T00940017 58005
KGEG 200953Z 11004KT 10SM BKN190 10/01 A2981 RMK AO2 SLP089 T01000011
KGEG 201053Z 12003KT 10SM OVC190 11/01 A2980 RMK AO2 SLP083 T01110011
KGEG 201153Z 14007KT 10SM SCT160 BKN200 OVC240 12/01 A2980 RMK AO2 SLP083 T01170011 10122 20083 56006



Page loaded:  12:21 UTC  |   05:21 AM Pacific  |   06:21 AM Mountain  |   07:21 AM Central  |   08:21 AM Eastern

 

ADVISORIES

FORECASTS

FORECASTS

OBSERVATIONS

USER TOOLS

ABOUT US